Time;durP1;ratioP1;P1;durP2;ratioP2;P2;SDS_P1;SDS_P2;PMS_P1;PMS_P2;Temp;Humidity;BMP_temperature;BMP_pressure;BME280_temperature;BME280_humidity;BME280_pressure;Samples;Min_cycle;Max_cycle;Signal;HPM_P1;HPM_P2
2023/08/15 00:02:09;;;;;;;11.75;8.48;;;18.40;99.90;;;;;;5056925;28;20055;-77
2023/08/15 00:04:35;;;;;;;11.65;8.07;;;18.40;99.90;;;;;;5059771;28;20055;-77
2023/08/15 00:07:04;;;;;;;14.00;8.95;;;18.40;99.90;;;;;;5070897;28;20032;-75
2023/08/15 00:09:31;;;;;;;15.15;8.02;;;18.50;99.90;;;;;;5078185;28;20039;-77
2023/08/15 00:11:57;;;;;;;12.05;8.32;;;18.50;99.90;;;;;;5059501;28;20045;-77
2023/08/15 00:14:22;;;;;;;15.70;8.18;;;18.40;99.90;;;;;;5060951;28;20051;-78
2023/08/15 00:16:48;;;;;;;10.80;8.73;;;18.40;99.90;;;;;;5054931;28;20480;-76
2023/08/15 00:19:13;;;;;;;11.80;8.32;;;18.40;99.90;;;;;;5048252;28;20210;-77
2023/08/15 00:21:39;;;;;;;11.98;8.68;;;18.40;99.90;;;;;;5088553;28;20044;-77
2023/08/15 00:24:05;;;;;;;11.07;9.40;;;18.40;99.90;;;;;;5086195;28;20040;-77
2023/08/15 00:26:31;;;;;;;19.75;8.25;;;18.30;99.90;;;;;;5068622;28;20505;-77
2023/08/15 00:28:58;;;;;;;14.30;9.18;;;18.30;99.90;;;;;;5087303;28;20043;-77
2023/08/15 00:31:24;;;;;;;13.70;9.18;;;18.20;99.90;;;;;;5051011;28;20036;-77
2023/08/15 00:33:49;;;;;;;13.50;9.10;;;18.20;99.90;;;;;;5085249;28;21645;-77
2023/08/15 00:36:15;;;;;;;14.30;9.07;;;18.20;99.90;;;;;;5069035;28;20110;-77
2023/08/15 00:38:41;;;;;;;15.38;9.60;;;18.20;99.90;;;;;;5074124;28;20435;-77
2023/08/15 00:41:06;;;;;;;11.68;8.95;;;18.10;99.90;;;;;;5086536;28;20040;-77
2023/08/15 00:43:32;;;;;;;13.50;9.65;;;18.10;99.90;;;;;;5068691;28;20101;-77
2023/08/15 00:46:02;;;;;;;14.48;9.13;;;18.10;99.90;;;;;;5086747;28;20078;-77
2023/08/15 00:48:29;;;;;;;12.23;8.90;;;18.00;99.90;;;;;;5075484;28;20506;-76
2023/08/15 00:50:58;;;;;;;16.33;9.02;;;18.00;99.90;;;;;;5082123;28;20048;-77
2023/08/15 00:53:24;;;;;;;9.23;8.27;;;18.10;99.90;;;;;;5068723;28;20044;-77
2023/08/15 00:55:54;;;;;;;12.63;9.40;;;18.00;99.90;;;;;;5085928;28;20048;-79
2023/08/15 00:58:19;;;;;;;11.68;8.80;;;18.00;99.90;;;;;;5065046;28;20040;-77
2023/08/15 01:00:45;;;;;;;13.65;8.98;;;18.10;99.90;;;;;;5078835;28;20059;-78
2023/08/15 01:03:12;;;;;;;13.35;8.60;;;18.10;99.90;;;;;;5063343;28;20158;-77
2023/08/15 01:05:39;;;;;;;12.93;8.98;;;18.00;99.90;;;;;;5064790;28;20472;-77
2023/08/15 01:08:06;;;;;;;17.65;9.98;;;18.00;99.90;;;;;;5055390;28;20553;-76
2023/08/15 01:10:32;;;;;;;17.70;9.48;;;18.00;99.90;;;;;;5066752;28;20040;-77
2023/08/15 01:13:02;;;;;;;17.58;9.57;;;18.10;99.90;;;;;;5055742;28;20434;-77
2023/08/15 01:15:31;;;;;;;17.85;9.98;;;18.10;99.90;;;;;;5083384;28;20040;-77
2023/08/15 01:18:16;;;;;;;12.77;9.20;;;18.00;99.90;;;;;;5083813;28;20114;-77
2023/08/15 01:20:42;;;;;;;11.95;8.90;;;18.10;99.90;;;;;;5047040;28;20049;-77
2023/08/15 01:23:12;;;;;;;11.93;9.13;;;18.10;99.90;;;;;;5079239;28;20154;-76
2023/08/15 01:25:42;;;;;;;12.15;8.98;;;18.10;99.90;;;;;;5068389;28;20038;-78
2023/08/15 01:28:13;;;;;;;13.40;9.40;;;18.10;99.90;;;;;;5080219;28;20043;-77
2023/08/15 01:31:07;;;;;;;14.27;10.02;;;18.10;99.90;;;;;;5072828;28;20086;-77
2023/08/15 01:34:11;;;;;;;14.50;9.25;;;18.20;99.90;;;;;;5053597;28;20417;-78
2023/08/15 01:36:52;;;;;;;13.40;9.93;;;18.20;99.90;;;;;;5088852;28;20071;-78
2023/08/15 01:39:23;;;;;;;14.07;9.15;;;18.30;99.90;;;;;;5085836;28;20423;-78
2023/08/15 01:41:49;;;;;;;17.30;9.18;;;18.30;99.90;;;;;;5049588;28;20135;-77
2023/08/15 01:44:16;;;;;;;12.73;9.05;;;18.30;99.90;;;;;;5078585;28;20524;-77
2023/08/15 01:46:46;;;;;;;12.25;9.40;;;18.30;99.90;;;;;;5060672;28;20032;-78
2023/08/15 01:49:12;;;;;;;14.75;9.85;;;18.30;99.90;;;;;;5060257;28;20484;-76
2023/08/15 01:51:38;;;;;;;12.82;9.88;;;18.20;99.90;;;;;;5081805;28;20123;-78
2023/08/15 01:54:04;;;;;;;18.30;9.82;;;18.20;99.90;;;;;;5084596;28;20134;-77
2023/08/15 01:56:29;;;;;;;16.90;9.90;;;18.20;99.90;;;;;;5055758;28;20044;-78
2023/08/15 01:58:55;;;;;;;17.63;10.13;;;18.10;99.90;;;;;;5073789;28;20115;-78
2023/08/15 02:01:20;;;;;;;13.57;10.32;;;18.20;99.90;;;;;;5066946;28;20052;-78
2023/08/15 02:03:46;;;;;;;13.13;9.85;;;18.10;99.90;;;;;;5077685;28;20044;-78
2023/08/15 02:06:12;;;;;;;13.15;10.27;;;18.20;99.90;;;;;;5058065;28;20048;-77
2023/08/15 02:08:38;;;;;;;15.50;10.15;;;18.10;99.90;;;;;;5082456;28;20491;-77
2023/08/15 02:11:03;;;;;;;16.60;10.80;;;18.10;99.90;;;;;;5054870;28;20044;-76
2023/08/15 02:13:32;;;;;;;13.15;10.23;;;18.10;99.90;;;;;;5084746;28;20076;-77
2023/08/15 02:15:58;;;;;;;14.75;9.45;;;18.00;99.90;;;;;;5052603;28;20039;-78
2023/08/15 02:18:26;;;;;;;15.85;10.98;;;18.00;99.90;;;;;;5055836;28;20381;-77
2023/08/15 02:20:52;;;;;;;16.10;10.40;;;18.00;99.90;;;;;;5056114;28;20041;-78
2023/08/15 02:23:18;;;;;;;15.13;10.35;;;18.00;99.90;;;;;;5064326;28;20040;-77
2023/08/15 02:25:43;;;;;;;15.90;9.93;;;18.00;99.90;;;;;;5087663;28;20036;-77
2023/08/15 02:28:09;;;;;;;14.25;9.30;;;18.10;99.90;;;;;;5056042;28;20466;-78
2023/08/15 02:30:37;;;;;;;18.20;11.07;;;18.10;99.90;;;;;;5065283;28;20048;-78
2023/08/15 02:33:06;;;;;;;14.32;10.18;;;18.10;99.90;;;;;;5079731;28;20077;-77
2023/08/15 02:35:32;;;;;;;17.13;10.60;;;18.10;99.90;;;;;;5061039;28;20089;-77
2023/08/15 02:37:58;;;;;;;14.57;9.98;;;18.10;99.90;;;;;;5057295;28;20469;-77
2023/08/15 02:40:28;;;;;;;15.38;9.75;;;18.10;99.90;;;;;;5066181;28;20500;-78
2023/08/15 02:42:53;;;;;;;13.60;9.90;;;18.20;99.90;;;;;;5063638;28;20036;-78
2023/08/15 02:45:19;;;;;;;14.80;10.23;;;18.20;99.90;;;;;;5074803;28;20085;-78
2023/08/15 02:47:46;;;;;;;14.18;9.75;;;18.20;99.90;;;;;;5057839;28;20119;-78
2023/08/15 02:50:12;;;;;;;13.20;10.10;;;18.20;99.90;;;;;;5056817;28;20117;-77
2023/08/15 02:52:37;;;;;;;14.55;10.27;;;18.20;99.90;;;;;;5061107;28;20495;-77
2023/08/15 02:55:04;;;;;;;13.13;10.10;;;18.20;99.90;;;;;;5073350;28;20048;-77
2023/08/15 02:57:29;;;;;;;17.63;9.98;;;18.30;99.90;;;;;;5062924;28;20032;-78
2023/08/15 02:59:55;;;;;;;16.65;10.73;;;18.30;99.90;;;;;;5079742;28;20047;-78
2023/08/15 03:02:21;;;;;;;14.75;10.65;;;18.20;99.90;;;;;;5068296;28;20052;-78
2023/08/15 03:04:46;;;;;;;18.90;10.85;;;18.30;99.90;;;;;;5064119;28;20043;-78
2023/08/15 03:07:12;;;;;;;16.20;10.43;;;18.30;99.90;;;;;;5055845;28;20483;-78
2023/08/15 03:09:38;;;;;;;16.13;9.88;;;18.30;99.90;;;;;;5070825;28;20063;-78
2023/08/15 03:12:03;;;;;;;16.83;9.88;;;18.40;99.90;;;;;;5074900;28;20549;-78
2023/08/15 03:14:29;;;;;;;15.60;9.75;;;18.40;99.90;;;;;;5076396;28;20040;-78
2023/08/15 03:16:55;;;;;;;15.35;10.35;;;18.30;99.90;;;;;;5080175;28;20038;-78
2023/08/15 03:19:21;;;;;;;15.50;9.55;;;18.30;99.90;;;;;;5034937;28;20071;-78
2023/08/15 03:21:46;;;;;;;15.20;9.95;;;18.30;99.90;;;;;;5056067;28;20055;-78
2023/08/15 03:24:12;;;;;;;14.90;9.80;;;18.40;99.90;;;;;;5065486;28;20047;-78
2023/08/15 03:26:38;;;;;;;19.02;9.07;;;18.40;99.90;;;;;;5058350;28;20040;-78
2023/08/15 03:29:05;;;;;;;16.15;9.57;;;18.30;99.90;;;;;;5061311;28;20050;-78
2023/08/15 03:31:30;;;;;;;12.48;8.77;;;18.30;99.90;;;;;;5067510;28;20296;-79
2023/08/15 03:33:56;;;;;;;14.05;9.23;;;18.30;99.90;;;;;;5079952;28;20101;-79
2023/08/15 03:36:22;;;;;;;12.30;9.30;;;18.30;99.90;;;;;;5050194;28;20058;-78
2023/08/15 03:38:48;;;;;;;12.93;9.23;;;18.30;99.90;;;;;;5076500;28;20071;-78
2023/08/15 03:41:13;;;;;;;12.05;9.40;;;18.30;99.90;;;;;;5069346;28;20051;-79
2023/08/15 03:43:39;;;;;;;14.80;8.95;;;18.20;99.90;;;;;;5087048;28;20066;-79
2023/08/15 03:46:06;;;;;;;14.90;8.32;;;18.30;99.90;;;;;;5066491;28;20384;-78
2023/08/15 03:48:32;;;;;;;15.57;8.00;;;18.20;99.90;;;;;;5067255;28;20318;-78
2023/08/15 03:50:59;;;;;;;13.05;8.20;;;18.20;99.90;;;;;;5079365;28;20047;-78
2023/08/15 03:53:25;;;;;;;13.98;8.52;;;18.20;99.90;;;;;;5086688;28;20046;-77
2023/08/15 03:55:52;;;;;;;13.15;8.27;;;18.10;99.90;;;;;;5061268;28;20570;-78
2023/08/15 03:58:19;;;;;;;15.70;8.43;;;18.10;99.90;;;;;;5049855;28;20041;-78
2023/08/15 04:00:48;;;;;;;13.38;7.50;;;18.10;99.90;;;;;;5050923;28;20090;-78
2023/08/15 04:03:14;;;;;;;14.80;8.15;;;18.10;99.90;;;;;;5084555;28;20556;-78
2023/08/15 04:05:44;;;;;;;14.23;7.72;;;18.10;99.90;;;;;;5050462;28;20032;-78
2023/08/15 04:08:10;;;;;;;16.42;7.90;;;18.00;99.90;;;;;;5082683;28;20491;-78
2023/08/15 04:10:39;;;;;;;16.17;8.80;;;18.00;99.90;;;;;;5071467;28;20055;-79
2023/08/15 04:13:09;;;;;;;13.38;7.90;;;17.90;99.90;;;;;;5057820;28;20040;-78
2023/08/15 04:15:35;;;;;;;14.65;9.13;;;17.90;99.90;;;;;;5042613;28;20076;-78
2023/08/15 04:18:03;;;;;;;15.05;8.45;;;17.90;99.90;;;;;;5067919;28;20115;-76
2023/08/15 04:20:29;;;;;;;14.95;7.43;;;17.80;99.90;;;;;;5058150;28;20058;-78
2023/08/15 04:22:55;;;;;;;13.75;7.68;;;17.80;99.90;;;;;;5080598;28;20040;-78
2023/08/15 04:25:20;;;;;;;14.40;8.00;;;17.80;99.90;;;;;;5081913;28;21034;-78
2023/08/15 04:27:46;;;;;;;13.38;8.18;;;17.80;99.90;;;;;;5082497;28;20522;-78
2023/08/15 04:30:11;;;;;;;11.13;7.20;;;17.70;99.90;;;;;;5089455;28;20085;-78
2023/08/15 04:32:37;;;;;;;11.18;7.35;;;17.70;99.90;;;;;;5068638;28;20048;-78
2023/08/15 04:35:03;;;;;;;13.30;7.15;;;17.70;99.90;;;;;;5086256;28;20055;-78
2023/08/15 04:37:29;;;;;;;12.60;7.47;;;17.70;99.90;;;;;;5052466;28;20036;-78
2023/08/15 04:39:55;;;;;;;13.73;7.15;;;17.60;99.90;;;;;;5071608;28;20048;-78
2023/08/15 04:42:20;;;;;;;14.90;7.07;;;17.60;99.90;;;;;;5050918;28;20047;-78
2023/08/15 04:44:46;;;;;;;10.82;6.63;;;17.60;99.90;;;;;;5078016;28;20048;-78
2023/08/15 04:47:12;;;;;;;12.70;7.32;;;17.60;99.90;;;;;;5073910;28;20028;-78
2023/08/15 04:49:39;;;;;;;10.50;7.00;;;17.50;99.90;;;;;;5070586;28;20036;-78
2023/08/15 04:52:05;;;;;;;12.90;7.47;;;17.50;99.90;;;;;;5067729;28;20063;-78
2023/08/15 04:54:30;;;;;;;13.98;7.93;;;17.50;99.90;;;;;;5073281;28;20040;-78
2023/08/15 04:56:56;;;;;;;14.32;7.88;;;17.50;99.90;;;;;;5054643;28;20043;-78
2023/08/15 04:59:22;;;;;;;14.30;7.68;;;17.50;99.90;;;;;;5066385;28;20502;-78
2023/08/15 05:01:47;;;;;;;12.00;7.93;;;17.40;99.90;;;;;;5065869;28;20040;-77
2023/08/15 05:04:13;;;;;;;13.07;6.65;;;17.50;99.90;;;;;;5066500;28;20052;-78
2023/08/15 05:06:39;;;;;;;10.13;6.93;;;17.50;99.90;;;;;;5052498;28;20040;-78
2023/08/15 05:09:05;;;;;;;10.48;6.97;;;17.40;99.90;;;;;;5048329;28;20044;-78
2023/08/15 05:11:30;;;;;;;14.05;6.60;;;17.40;99.90;;;;;;5059791;28;20048;-79
2023/08/15 05:13:57;;;;;;;14.10;6.72;;;17.40;99.90;;;;;;5072904;28;20036;-78
2023/08/15 05:16:22;;;;;;;11.38;6.72;;;17.50;99.90;;;;;;5084359;28;20038;-78
2023/08/15 05:18:48;;;;;;;17.13;6.80;;;17.50;99.90;;;;;;5071672;28;20398;-78
2023/08/15 05:21:13;;;;;;;25.45;7.18;;;17.40;99.90;;;;;;5090031;28;20066;-78
2023/08/15 05:23:39;;;;;;;18.50;6.80;;;17.40;99.90;;;;;;5070704;28;20059;-79
2023/08/15 05:26:05;;;;;;;13.35;6.22;;;17.50;99.90;;;;;;5084921;28;20044;-77
2023/08/15 05:28:30;;;;;;;16.15;6.60;;;17.50;99.90;;;;;;5068382;28;20032;-78
2023/08/15 05:30:56;;;;;;;13.68;6.63;;;17.50;99.90;;;;;;5071053;28;20419;-78
2023/08/15 05:33:21;;;;;;;16.85;6.72;;;17.50;99.90;;;;;;5089333;28;20044;-79
2023/08/15 05:35:48;;;;;;;13.82;5.90;;;17.50;99.90;;;;;;5055969;28;20048;-79
2023/08/15 05:38:13;;;;;;;15.52;6.30;;;17.50;99.90;;;;;;5086106;28;20467;-77
2023/08/15 05:40:39;;;;;;;14.45;6.20;;;17.50;99.90;;;;;;5082230;28;20050;-77
2023/08/15 05:43:05;;;;;;;13.75;5.97;;;17.60;99.90;;;;;;5059096;28;20040;-77
2023/08/15 05:45:30;;;;;;;18.67;6.65;;;17.70;99.90;;;;;;5086571;28;20075;-77
2023/08/15 05:47:56;;;;;;;11.63;5.45;;;17.70;99.90;;;;;;5062266;28;20545;-76
2023/08/15 05:50:22;;;;;;;22.85;6.18;;;17.80;99.90;;;;;;5074798;28;20044;-76
2023/08/15 05:52:47;;;;;;;13.50;5.85;;;17.90;99.90;;;;;;5081884;28;20036;-76
2023/08/15 05:55:13;;;;;;;12.23;5.88;;;18.00;99.90;;;;;;5078814;28;20044;-75
2023/08/15 05:57:38;;;;;;;13.95;5.13;;;18.10;99.90;;;;;;5065291;28;20040;-76
2023/08/15 06:00:05;;;;;;;13.18;6.00;;;18.20;99.90;;;;;;5066041;28;20028;-76
2023/08/15 06:02:35;;;;;;;15.10;5.85;;;18.20;99.90;;;;;;5085294;28;20683;-76
2023/08/15 06:05:02;;;;;;;17.45;6.38;;;18.20;99.90;;;;;;5071611;28;20044;-77
2023/08/15 06:07:28;;;;;;;14.38;6.38;;;18.30;99.90;;;;;;5084756;28;20050;-77
2023/08/15 06:09:54;;;;;;;12.65;5.70;;;18.40;99.90;;;;;;5083153;28;20051;-76
2023/08/15 06:12:20;;;;;;;14.13;5.57;;;18.50;99.90;;;;;;5087126;28;20601;-77
2023/08/15 06:14:46;;;;;;;13.60;5.88;;;18.80;99.90;;;;;;5067787;28;20063;-77
2023/08/15 06:17:14;;;;;;;13.63;5.43;;;19.00;99.90;;;;;;5080635;28;20047;-77
2023/08/15 06:19:40;;;;;;;18.90;5.75;;;19.10;99.90;;;;;;5076405;28;20051;-77
2023/08/15 06:22:06;;;;;;;15.60;5.60;;;19.30;99.90;;;;;;5082126;28;20135;-77
2023/08/15 06:24:31;;;;;;;11.73;5.32;;;19.60;99.90;;;;;;5045152;28;20048;-77
2023/08/15 06:26:57;;;;;;;15.55;5.13;;;19.70;99.90;;;;;;5076007;28;20524;-77
2023/08/15 06:29:25;;;;;;;14.52;5.65;;;20.00;99.90;;;;;;5069883;28;20097;-77
2023/08/15 06:31:52;;;;;;;13.95;5.55;;;20.10;99.90;;;;;;5064686;28;20167;-77
2023/08/15 06:34:18;;;;;;;13.18;4.30;;;20.20;99.90;;;;;;5068493;28;20542;-78
2023/08/15 06:36:43;;;;;;;13.60;5.35;;;20.40;99.90;;;;;;5064638;28;20131;-77
2023/08/15 06:39:09;;;;;;;13.95;5.03;;;20.50;99.90;;;;;;5068347;28;20126;-77
2023/08/15 06:41:35;;;;;;;12.55;4.80;;;20.70;99.90;;;;;;5050795;28;20446;-77
2023/08/15 06:44:00;;;;;;;11.52;4.97;;;20.80;99.90;;;;;;5088572;28;20089;-74
2023/08/15 06:46:26;;;;;;;13.43;4.38;;;20.90;99.90;;;;;;5061448;28;20036;-78
2023/08/15 06:48:52;;;;;;;9.60;4.30;;;21.00;99.90;;;;;;5086462;28;20059;-78
2023/08/15 06:51:17;;;;;;;12.82;5.28;;;21.20;99.90;;;;;;5056693;28;20040;-79
2023/08/15 06:53:46;;;;;;;14.27;5.03;;;21.20;99.90;;;;;;5084879;28;20068;-86
2023/08/15 06:56:12;;;;;;;14.38;4.60;;;21.40;99.90;;;;;;5082461;28;20519;-82
2023/08/15 06:58:38;;;;;;;13.68;3.42;;;21.50;99.90;;;;;;5044829;28;20475;-75
2023/08/15 07:01:05;;;;;;;11.65;3.20;;;21.50;99.90;;;;;;5058484;28;20048;-78
2023/08/15 07:03:33;;;;;;;8.80;2.70;;;21.50;99.90;;;;;;5040844;28;20051;-77
2023/08/15 07:05:59;;;;;;;8.70;2.63;;;21.40;99.90;;;;;;5085116;28;20140;-77
2023/08/15 07:08:24;;;;;;;11.50;2.70;;;21.40;99.90;;;;;;5066202;28;20052;-77
2023/08/15 07:10:57;;;;;;;12.88;2.58;;;21.30;99.90;;;;;;5086300;28;20040;-77
2023/08/15 07:13:23;;;;;;;4.85;2.00;;;21.30;99.90;;;;;;5058248;28;20075;-77
2023/08/15 07:15:58;;;;;;;6.35;2.13;;;21.30;99.90;;;;;;5084168;28;20071;-78
2023/08/15 07:18:24;;;;;;;8.35;2.17;;;21.30;99.90;;;;;;5088320;28;20068;-78
2023/08/15 07:20:53;;;;;;;7.95;2.40;;;21.40;99.90;;;;;;5088154;28;20044;-78
2023/08/15 07:23:22;;;;;;;7.70;2.67;;;21.60;99.90;;;;;;5084121;28;20046;-77
2023/08/15 07:25:48;;;;;;;6.88;2.35;;;21.60;99.90;;;;;;5081088;28;20051;-76
2023/08/15 07:28:14;;;;;;;8.40;2.45;;;21.70;99.90;;;;;;5086209;28;20036;-76
2023/08/15 07:30:41;;;;;;;8.65;2.22;;;21.80;99.90;;;;;;5079625;28;20075;-77
2023/08/15 07:33:07;;;;;;;9.55;2.55;;;21.90;99.90;;;;;;5076143;28;20468;-76
2023/08/15 07:35:32;;;;;;;9.88;2.72;;;22.00;99.90;;;;;;5087091;28;20499;-77
2023/08/15 07:37:58;;;;;;;8.35;2.53;;;22.10;99.90;;;;;;5064735;28;20074;-78
2023/08/15 07:40:24;;;;;;;10.00;2.80;;;22.10;99.90;;;;;;5050321;28;20138;-78
2023/08/15 07:42:49;;;;;;;6.18;2.13;;;22.20;99.90;;;;;;5048567;28;20533;-77
2023/08/15 07:45:16;;;;;;;5.75;2.10;;;22.30;99.90;;;;;;5086441;28;20262;-78
2023/08/15 07:47:42;;;;;;;7.78;2.45;;;22.20;99.90;;;;;;5054265;28;20041;-78
2023/08/15 07:50:34;;;;;;;8.68;2.88;;;22.20;99.90;;;;;;5067154;28;20082;-77
2023/08/15 07:53:00;;;;;;;10.30;2.80;;;22.30;99.90;;;;;;5071428;28;20131;-78
2023/08/15 07:55:27;;;;;;;8.70;2.58;;;22.30;99.90;;;;;;5072684;28;20115;-78
2023/08/15 07:57:53;;;;;;;7.85;3.08;;;22.40;99.90;;;;;;5080345;28;20505;-78
2023/08/15 08:00:19;;;;;;;8.68;2.80;;;22.40;99.90;;;;;;5066240;28;20127;-78
2023/08/15 08:02:45;;;;;;;8.25;2.72;;;22.50;99.90;;;;;;5081744;28;20325;-79
2023/08/15 08:05:14;;;;;;;8.82;3.63;;;22.40;99.90;;;;;;5080681;28;20383;-78
2023/08/15 08:07:41;;;;;;;9.25;2.50;;;22.40;99.90;;;;;;5051971;28;20036;-79
2023/08/15 08:10:07;;;;;;;7.93;2.83;;;22.20;99.90;;;;;;5059851;28;20102;-77
2023/08/15 08:12:33;;;;;;;8.55;2.75;;;22.00;99.90;;;;;;5065763;28;20055;-79
2023/08/15 08:14:59;;;;;;;10.88;2.65;;;21.90;99.90;;;;;;5067914;28;20051;-79
2023/08/15 08:17:26;;;;;;;6.97;2.58;;;21.70;99.90;;;;;;5082561;28;20452;-78
2023/08/15 08:19:52;;;;;;;9.60;2.47;;;21.70;99.90;;;;;;5080409;28;20044;-78
2023/08/15 08:22:18;;;;;;;8.93;2.60;;;21.70;99.90;;;;;;5072109;28;20063;-78
2023/08/15 08:24:44;;;;;;;7.60;2.13;;;21.80;99.90;;;;;;5079695;28;20083;-78
2023/08/15 08:27:09;;;;;;;5.63;2.60;;;21.90;99.90;;;;;;5061058;28;20044;-79
2023/08/15 08:29:35;;;;;;;6.60;2.30;;;21.90;99.90;;;;;;5052202;28;20051;-79
2023/08/15 08:32:01;;;;;;;8.70;2.22;;;22.00;99.90;;;;;;5049235;28;20032;-77
2023/08/15 08:34:27;;;;;;;8.07;2.90;;;22.10;99.90;;;;;;5059725;28;20075;-79
2023/08/15 08:36:52;;;;;;;6.70;2.20;;;22.20;99.90;;;;;;5075711;28;20101;-79
2023/08/15 08:39:18;;;;;;;7.40;2.47;;;22.50;99.90;;;;;;5065254;28;20037;-78
2023/08/15 08:41:44;;;;;;;6.68;2.40;;;22.70;99.90;;;;;;5070126;28;20119;-78
2023/08/15 08:44:11;;;;;;;10.23;2.20;;;22.90;99.90;;;;;;5058385;28;20528;-78
2023/08/15 08:46:38;;;;;;;6.63;2.35;;;23.10;99.90;;;;;;5042108;28;20051;-79
2023/08/15 08:49:04;;;;;;;8.73;2.47;;;23.20;99.90;;;;;;5064316;28;20032;-78
2023/08/15 08:51:32;;;;;;;8.80;2.45;;;23.40;99.90;;;;;;5084865;28;20071;-78
2023/08/15 08:53:57;;;;;;;7.43;2.58;;;23.40;99.90;;;;;;5052649;28;20040;-78
2023/08/15 08:56:25;;;;;;;9.32;2.30;;;23.50;99.90;;;;;;5053910;28;20384;-79
2023/08/15 08:59:01;;;;;;;7.55;3.03;;;23.70;99.90;;;;;;5083402;28;20044;-78
2023/08/15 09:01:33;;;;;;;8.55;2.30;;;24.00;99.90;;;;;;5068645;28;20093;-78
2023/08/15 09:04:00;;;;;;;7.60;2.85;;;24.30;99.90;;;;;;5062413;28;20708;-79
2023/08/15 09:06:26;;;;;;;7.63;2.55;;;24.30;99.90;;;;;;5046200;28;20568;-79
2023/08/15 09:08:52;;;;;;;9.15;3.08;;;24.40;99.90;;;;;;5084680;28;20051;-78
2023/08/15 09:11:19;;;;;;;7.45;2.38;;;24.20;99.90;;;;;;5084158;28;20032;-78
2023/08/15 09:13:49;;;;;;;6.68;2.10;;;23.90;99.90;;;;;;5076085;28;20044;-78
2023/08/15 09:16:15;;;;;;;9.05;3.08;;;23.70;99.90;;;;;;5070045;28;20047;-78
2023/08/15 09:18:42;;;;;;;10.30;2.95;;;23.50;99.90;;;;;;5072957;28;20040;-78
2023/08/15 09:21:08;;;;;;;9.18;2.25;;;23.30;99.90;;;;;;5084005;27;20040;-78
2023/08/15 09:23:33;;;;;;;9.15;2.65;;;23.20;99.90;;;;;;5062108;28;20194;-78
2023/08/15 09:26:14;;;;;;;6.38;2.40;;;23.00;99.90;;;;;;5059744;28;20456;-78
2023/08/15 09:28:41;;;;;;;8.77;2.25;;;23.00;99.90;;;;;;5060845;28;20032;-79
2023/08/15 09:31:09;;;;;;;8.45;2.17;;;22.90;99.90;;;;;;5077320;28;20605;-77
2023/08/15 09:33:36;;;;;;;7.45;1.90;;;23.00;99.90;;;;;;5060144;28;20052;-78
2023/08/15 09:36:05;;;;;;;5.63;2.05;;;22.90;99.90;;;;;;5054029;28;20511;-77
2023/08/15 09:38:31;;;;;;;6.95;1.90;;;22.90;99.90;;;;;;5077460;28;20047;-78
2023/08/15 09:40:56;;;;;;;7.10;2.35;;;23.30;99.90;;;;;;5084267;28;20032;-78
2023/08/15 09:43:22;;;;;;;7.95;2.65;;;23.50;99.90;;;;;;5049213;28;20141;-78
2023/08/15 09:45:49;;;;;;;8.60;1.92;;;23.80;99.90;;;;;;5066411;28;20093;-78
2023/08/15 09:48:19;;;;;;;7.50;2.20;;;24.00;99.90;;;;;;5081895;28;20067;-77
2023/08/15 09:50:48;;;;;;;5.57;1.98;;;23.90;99.90;;;;;;5066736;28;20082;-77
2023/08/15 09:53:14;;;;;;;8.32;2.00;;;23.90;99.90;;;;;;5050053;28;20075;-79
2023/08/15 09:55:40;;;;;;;5.68;1.98;;;23.90;99.90;;;;;;5080659;28;20047;-76
2023/08/15 09:58:07;;;;;;;5.18;1.90;;;23.80;99.90;;;;;;5067477;28;20078;-76
2023/08/15 10:00:38;;;;;;;7.43;2.22;;;23.80;99.90;;;;;;5082903;28;20041;-77
2023/08/15 10:03:23;;;;;;;4.88;2.53;;;23.90;99.90;;;;;;5080141;28;20056;-78
2023/08/15 10:05:54;;;;;;;5.00;2.00;;;23.90;99.90;;;;;;5082537;28;20109;-78
2023/08/15 10:08:21;;;;;;;6.55;2.35;;;23.90;99.90;;;;;;5063217;28;20420;-77
2023/08/15 10:10:52;;;;;;;5.82;1.98;;;23.90;99.90;;;;;;5064756;28;20589;-78
2023/08/15 10:13:25;;;;;;;10.77;2.70;;;23.90;99.90;;;;;;5077215;28;20058;-78
2023/08/15 10:15:52;;;;;;;9.30;2.45;;;23.80;99.90;;;;;;5069352;28;20071;-78
2023/08/15 10:18:18;;;;;;;6.78;2.53;;;23.70;99.90;;;;;;5083049;28;20450;-79
2023/08/15 10:20:51;;;;;;;5.47;2.20;;;23.80;99.90;;;;;;5085533;28;20257;-78
2023/08/15 10:23:26;;;;;;;6.22;2.58;;;23.90;99.90;;;;;;5081249;28;20048;-79
2023/08/15 10:25:53;;;;;;;10.45;3.08;;;24.00;99.90;;;;;;5074045;28;20070;-78
2023/08/15 10:28:19;;;;;;;5.45;2.63;;;24.10;99.90;;;;;;5075702;28;20040;-83
2023/08/15 10:30:46;;;;;;;7.10;2.55;;;24.10;99.90;;;;;;5048416;28;20075;-78
2023/08/15 10:33:12;;;;;;;4.70;2.20;;;24.30;99.90;;;;;;5082685;28;20766;-78
2023/08/15 10:36:01;;;;;;;5.22;2.00;;;24.50;99.90;;;;;;5064251;28;20127;-77
2023/08/15 10:38:29;;;;;;;8.50;2.60;;;24.60;99.90;;;;;;5051870;28;20515;-77
2023/08/15 10:41:21;;;;;;;8.05;2.67;;;24.60;99.90;;;;;;5079193;28;20047;-78
2023/08/15 10:43:55;;;;;;;11.45;2.85;;;24.50;99.90;;;;;;5074765;28;20047;-80
2023/08/15 10:46:29;;;;;;;5.50;2.15;;;24.70;99.90;;;;;;5077305;28;20048;-80
2023/08/15 10:49:01;;;;;;;7.78;2.13;;;24.90;99.90;;;;;;5063340;28;20044;-79
2023/08/15 10:51:27;;;;;;;5.78;2.05;;;24.90;99.90;;;;;;5081746;28;20051;-80
2023/08/15 10:54:09;;;;;;;7.90;2.47;;;24.90;99.90;;;;;;5083669;28;20044;-78
2023/08/15 10:56:40;;;;;;;6.53;1.90;;;24.80;99.90;;;;;;5057417;28;20059;-78
2023/08/15 10:59:08;;;;;;;6.28;2.10;;;24.80;99.90;;;;;;5065739;28;20048;-75
2023/08/15 11:01:36;;;;;;;6.15;2.00;;;24.60;99.90;;;;;;5065229;28;20060;-78
2023/08/15 11:04:03;;;;;;;8.07;2.60;;;24.50;99.90;;;;;;5084122;28;20150;-76
2023/08/15 11:06:30;;;;;;;5.68;2.15;;;24.30;99.90;;;;;;5079689;28;20142;-78
2023/08/15 11:08:57;;;;;;;4.22;1.83;;;24.20;99.90;;;;;;5051081;28;20578;-76
2023/08/15 11:11:24;;;;;;;7.22;1.90;;;23.90;99.90;;;;;;5070517;28;20044;-77
2023/08/15 11:13:52;;;;;;;3.17;1.50;;;24.00;99.90;;;;;;5083044;28;20127;-78
2023/08/15 11:16:20;;;;;;;5.55;1.90;;;24.30;99.90;;;;;;5066213;28;20058;-78
2023/08/15 11:18:47;;;;;;;5.22;1.80;;;24.60;99.90;;;;;;5067805;28;20867;-77
2023/08/15 11:21:15;;;;;;;4.82;1.60;;;24.70;99.90;;;;;;5049033;28;20131;-79
2023/08/15 11:23:41;;;;;;;6.68;1.80;;;24.90;99.90;;;;;;5085416;28;20040;-78
2023/08/15 11:26:09;;;;;;;7.57;1.83;;;25.10;99.90;;;;;;5088390;28;20039;-77
2023/08/15 11:28:35;;;;;;;4.57;1.65;;;25.30;99.90;;;;;;5053608;28;20435;-79
2023/08/15 11:31:12;;;;;;;6.13;2.17;;;25.40;99.90;;;;;;5087600;28;20177;-78
2023/08/15 11:33:38;;;;;;;7.25;1.73;;;25.40;99.90;;;;;;5087084;28;20040;-79
2023/08/15 11:36:06;;;;;;;4.03;1.80;;;25.40;99.90;;;;;;5063196;28;20086;-79
2023/08/15 11:38:33;;;;;;;4.75;1.60;;;25.40;99.90;;;;;;5088684;28;20487;-77
2023/08/15 11:41:01;;;;;;;5.00;1.70;;;25.40;99.90;;;;;;5070944;28;20054;-79
2023/08/15 11:43:28;;;;;;;5.38;1.58;;;25.40;99.90;;;;;;5036671;28;20562;-79
2023/08/15 11:45:53;;;;;;;6.80;1.90;;;25.40;99.90;;;;;;5069119;28;20209;-78
2023/08/15 11:48:19;;;;;;;4.88;1.80;;;25.60;99.90;;;;;;5068912;28;20127;-78
2023/08/15 11:50:46;;;;;;;5.82;1.70;;;25.60;99.90;;;;;;5085746;28;20082;-79
2023/08/15 11:53:14;;;;;;;6.22;2.25;;;25.70;99.90;;;;;;5056720;28;20052;-78
2023/08/15 11:55:41;;;;;;;5.60;1.88;;;25.70;99.90;;;;;;5068428;28;20047;-78
2023/08/15 11:58:26;;;;;;;7.57;1.83;;;25.40;99.90;;;;;;5081772;28;20557;-78
2023/08/15 12:01:11;;;;;;;6.63;2.38;;;25.00;99.90;;;;;;5051787;28;20047;-78
2023/08/15 12:03:38;;;;;;;7.10;1.70;;;24.90;99.90;;;;;;5053562;28;20036;-78
2023/08/15 12:06:11;;;;;;;5.68;2.13;;;24.90;99.90;;;;;;5067828;28;20052;-79
2023/08/15 12:08:39;;;;;;;7.80;2.10;;;25.00;99.90;;;;;;5066906;28;20525;-78
2023/08/15 12:11:07;;;;;;;4.10;2.30;;;25.10;99.90;;;;;;5070118;28;20052;-79
2023/08/15 12:13:38;;;;;;;6.78;2.42;;;25.20;99.90;;;;;;5052662;28;20044;-79
2023/08/15 12:16:07;;;;;;;6.50;2.15;;;25.20;99.90;;;;;;5067376;28;20036;-78
2023/08/15 12:18:33;;;;;;;6.15;2.53;;;25.10;99.90;;;;;;5078593;28;20169;-79
2023/08/15 12:21:00;;;;;;;6.57;2.55;;;25.00;99.90;;;;;;5076479;28;20036;-77
2023/08/15 12:23:26;;;;;;;8.73;2.95;;;24.80;99.90;;;;;;5084183;28;20505;-77
2023/08/15 12:25:52;;;;;;;7.75;3.10;;;24.60;99.90;;;;;;5066151;28;20108;-77
2023/08/15 12:28:18;;;;;;;7.88;2.97;;;24.30;99.90;;;;;;5086174;28;20169;-78
2023/08/15 12:30:45;;;;;;;7.35;2.80;;;24.30;99.90;;;;;;5080437;28;20068;-78
2023/08/15 12:33:11;;;;;;;9.65;2.80;;;24.50;99.90;;;;;;5066138;28;20204;-78
2023/08/15 12:35:37;;;;;;;11.10;3.05;;;24.70;99.90;;;;;;5068945;28;20059;-78
2023/08/15 12:38:03;;;;;;;7.75;2.58;;;24.70;99.90;;;;;;5085058;28;20036;-77
2023/08/15 12:40:29;;;;;;;5.97;2.30;;;24.80;99.90;;;;;;5066023;28;20047;-78
2023/08/15 12:42:55;;;;;;;9.70;2.60;;;24.80;99.90;;;;;;5065361;28;20040;-78